Accueil
METAR-TAF:

METAR-TAF

Aéroports :

Sheridan County Airport

Sheridan, Wyoming, États-Unis

latitude: 44-46-10N, longitude: 106-58-08W, altitude: 1225 m

Observation

Le bulletin a été fait il y a 1 heure et 19 minutes, à 12:53 UTC
Vent 3 kt de sud-est
Température 15°C
Humidité 63%
Pression 1016 hPa
Visibilité: 16.1 km
Ciel clair

METAR: KSHR 011253Z AUTO 14003KT 10SM CLR 15/08 A3000 RMK AO2 SLP121 T01500078

Heure: 08:12 (14:12 UTC)

Prévision

Le bulletin a été fait il y a 2 heures et 52 minutes, à 11:20 UTC
Prévision valable du 01 à 12 UTC au 02 à 12 UTC
Vent 6 kt de ouest/nord-ouest
Visibilité: 10 km
Quelques nuages à une hauteur de 12000 ft
Nuages épars à une hauteur de 22000 ft
A partir de 02 à 0200 UTC
Vent 8 kt de nord/nord-ouest
Visibilité: 10 km
Quelques nuages à une hauteur de 10000 ft
Nuages épars à une hauteur de 22000 ft

TAF: KSHR 011120Z 0112/0212 29006KT P6SM FEW120 SCT220 FM020200 33008KT P6SM FEW100 SCT220

Observations et prévisions météorologiques de plus de 4000 aéroports (messages METAR et TAF).

Les stations disponibles sont représentées par des disques jaunes et rouges sur la carte.

Passer la souris dessus pour voir le nom de la station.

Cliquer dessus pour voir les observations et prévisions météorologiques.

Pour changer de carte: cliquez sur les boutons verts avec une croix noire pour zoomer, sur le bouton vert avec un tiret pour effectuer un zoom arrière, ou sur les flèches vertes pour les cartes adjacentes.


METAR-TAF: